Impacts METAR Board
IDs:

KRSL - Russell Muni, KS, US

Updated at: 0600 UTC 19 Aug 2019
Potential Impact None Slight Moderate High
Time 18/18Z 18/19Z 18/20Z 18/21Z 18/22Z 18/23Z 19/00Z 19/01Z 19/02Z 19/03Z 19/04Z 19/05Z 19/06Z
Temp81 84 85 86 86 88 86 81 77 76 75 74 73
Dewpt62 63 66 65 64 66 69 70 70 69 69 70 69
Altim29.93 29.92 29.91 29.89 29.88 29.88 29.88 29.88 29.90 29.91 29.92 29.93 29.93
VIS10 10 10 10 10 10 10 10 10 10 10 10 10
CIG-- -- -- -- -- -- -- -- -- -- -- -- --
CoverCLRCLRCLRCLRCLRCLRCLRCLRCLRCLRCLRCLRCLR
FltCatVFRVFRVFRVFRVFRVFRVFRVFRVFRVFRVFRVFRVFR
WX--------------------------
WDir00130000807090110100110120
WSpd0 0 5 3 0 4 7 6 7 9 9 9 8
WGst-- -- -- -- -- -- -- -- -- -- -- -- --
Raw hourly METARs
KRSL 181753Z AUTO 00000KT 10SM CLR 27/17 A2993 RMK AO2 SLP120 T02720167 10272 20183 51010
KRSL 181853Z AUTO 00000KT 10SM CLR 29/17 A2992 RMK AO2 SLP116 T02890172
KRSL 181953Z AUTO 13005KT 10SM CLR 29/19 A2991 RMK AO2 SLP108 T02940189
KRSL 182053Z AUTO VRB03KT 10SM CLR 30/18 A2989 RMK AO2 SLP103 T03000183 58014
KRSL 182153Z AUTO 00000KT 10SM CLR 30/18 A2988 RMK AO2 SLP100 T03000178
KRSL 182253Z AUTO VRB04KT 10SM CLR 31/19 A2988 RMK AO2 SLP099 T03110189
KRSL 182353Z AUTO 08007KT 10SM CLR 30/21 A2988 RMK AO2 SLP100 T03000206 10311 20272 56003
KRSL 190053Z AUTO 07006KT 10SM CLR 27/21 A2988 RMK AO2 SLP103 T02720211
KRSL 190153Z AUTO 09007KT 10SM CLR 25/21 A2990 RMK AO2 SLP107 T02500211
KRSL 190253Z AUTO 11009KT 10SM CLR 24/21 A2991 RMK AO2 SLP111 T02440206 53010
KRSL 190353Z AUTO 10009KT 10SM CLR 24/21 A2992 RMK AO2 SLP113 T02390206
KRSL 190453Z AUTO 11009KT 10SM CLR 23/21 A2993 RMK AO2 SLP116 T02330211
KRSL 190553Z AUTO 12008KT 10SM CLR 23/21 A2993 RMK AO2 SLP118 T02280206 10294 20228 403110178 51008



Page loaded:  06:17 UTC  |   11:17 PM Pacific  |   12:17 AM Mountain  |   01:17 AM Central  |   02:17 AM Eastern

 

ADVISORIES

FORECASTS

FORECASTS

OBSERVATIONS

USER TOOLS

ABOUT US